sensor_id;sensor_type;location;lat;lon;timestamp;temperature;humidity
68139;DHT22;54940;50.842;4.410;2024-03-08T06:41:17;4.00;99.90
68139;DHT22;54940;50.842;4.410;2024-03-08T06:43:46;4.00;99.90
68139;DHT22;54940;50.842;4.410;2024-03-08T06:46:12;4.00;99.90
68139;DHT22;54940;50.842;4.410;2024-03-08T06:48:40;4.00;99.90
68139;DHT22;54940;50.842;4.410;2024-03-08T06:51:05;4.10;99.90
68139;DHT22;54940;50.842;4.410;2024-03-08T06:53:33;4.00;99.90
68139;DHT22;54940;50.842;4.410;2024-03-08T06:56:00;4.00;99.90
68139;DHT22;54940;50.842;4.410;2024-03-08T06:58:27;4.00;99.90
68139;DHT22;54940;50.842;4.410;2024-03-08T07:00:53;4.00;99.90
68139;DHT22;54940;50.842;4.410;2024-03-08T07:03:18;4.10;99.90
68139;DHT22;54940;50.842;4.410;2024-03-08T07:05:44;4.10;99.90
68139;DHT22;54940;50.842;4.410;2024-03-08T07:08:12;4.10;99.90
68139;DHT22;54940;50.842;4.410;2024-03-08T07:10:39;4.10;99.90
68139;DHT22;54940;50.842;4.410;2024-03-08T07:13:07;4.10;99.90
68139;DHT22;54940;50.842;4.410;2024-03-08T07:15:32;4.10;99.90
68139;DHT22;54940;50.842;4.410;2024-03-08T07:18:00;4.10;99.90
68139;DHT22;54940;50.842;4.410;2024-03-08T07:20:26;4.10;99.90
68139;DHT22;54940;50.842;4.410;2024-03-08T07:22:52;4.10;99.90
68139;DHT22;54940;50.842;4.410;2024-03-08T07:25:18;4.10;99.90
68139;DHT22;54940;50.842;4.410;2024-03-08T07:27:50;4.10;99.90
68139;DHT22;54940;50.842;4.410;2024-03-08T07:30:16;4.10;99.90
68139;DHT22;54940;50.842;4.410;2024-03-08T07:33:01;4.00;99.90
68139;DHT22;54940;50.842;4.410;2024-03-08T07:35:28;4.00;99.90
68139;DHT22;54940;50.842;4.410;2024-03-08T07:37:56;4.00;99.90
68139;DHT22;54940;50.842;4.410;2024-03-08T07:40:22;4.10;99.90
68139;DHT22;54940;50.842;4.410;2024-03-08T07:42:50;4.20;99.90
68139;DHT22;54940;50.842;4.410;2024-03-08T07:45:15;4.20;99.90
68139;DHT22;54940;50.842;4.410;2024-03-08T07:47:43;4.20;99.90
68139;DHT22;54940;50.842;4.410;2024-03-08T07:50:09;4.10;99.90
68139;DHT22;54940;50.842;4.410;2024-03-08T07:52:35;4.10;99.90
68139;DHT22;54940;50.842;4.410;2024-03-08T07:55:01;4.10;99.90
68139;DHT22;54940;50.842;4.410;2024-03-08T07:57:27;4.20;99.90
68139;DHT22;54940;50.842;4.410;2024-03-08T07:59:53;4.30;99.90
68139;DHT22;54940;50.842;4.410;2024-03-08T08:02:18;4.30;99.90
68139;DHT22;54940;50.842;4.410;2024-03-08T08:04:46;4.40;99.90
68139;DHT22;54940;50.842;4.410;2024-03-08T08:07:12;4.40;99.90
68139;DHT22;54940;50.842;4.410;2024-03-08T08:09:39;4.60;99.90
68139;DHT22;54940;50.842;4.410;2024-03-08T08:12:05;4.90;99.90
68139;DHT22;54940;50.842;4.410;2024-03-08T08:14:34;5.30;99.90
68139;DHT22;54940;50.842;4.410;2024-03-08T08:17:00;5.70;99.90
68139;DHT22;54940;50.842;4.410;2024-03-08T08:19:29;6.00;99.90
68139;DHT22;54940;50.842;4.410;2024-03-08T08:21:57;6.10;99.90
68139;DHT22;54940;50.842;4.410;2024-03-08T08:24:25;6.20;99.90
68139;DHT22;54940;50.842;4.410;2024-03-08T08:26:51;6.30;99.90
68139;DHT22;54940;50.842;4.410;2024-03-08T08:29:18;6.40;99.90
68139;DHT22;54940;50.842;4.410;2024-03-08T08:31:43;6.40;99.90
68139;DHT22;54940;50.842;4.410;2024-03-08T08:34:09;6.30;99.90
68139;DHT22;54940;50.842;4.410;2024-03-08T08:36:37;6.10;99.90
68139;DHT22;54940;50.842;4.410;2024-03-08T08:39:04;6.00;99.90
68139;DHT22;54940;50.842;4.410;2024-03-08T08:41:30;6.00;99.90
68139;DHT22;54940;50.842;4.410;2024-03-08T08:43:57;5.90;99.90
68139;DHT22;54940;50.842;4.410;2024-03-08T08:46:22;5.80;99.90
68139;DHT22;54940;50.842;4.410;2024-03-08T08:48:51;5.80;99.90
68139;DHT22;54940;50.842;4.410;2024-03-08T08:51:17;5.80;99.90
68139;DHT22;54940;50.842;4.410;2024-03-08T08:53:43;5.80;99.90
68139;DHT22;54940;50.842;4.410;2024-03-08T08:56:10;5.90;99.90
68139;DHT22;54940;50.842;4.410;2024-03-08T08:58:41;5.90;99.90
68139;DHT22;54940;50.842;4.410;2024-03-08T09:01:10;6.00;99.90
68139;DHT22;54940;50.842;4.410;2024-03-08T09:03:37;6.00;99.90
68139;DHT22;54940;50.842;4.410;2024-03-08T09:06:06;6.00;99.90
68139;DHT22;54940;50.842;4.410;2024-03-08T09:08:35;6.00;99.90
68139;DHT22;54940;50.842;4.410;2024-03-08T09:11:01;5.90;99.90
68139;DHT22;54940;50.842;4.410;2024-03-08T09:13:26;6.00;99.90
68139;DHT22;54940;50.842;4.410;2024-03-08T09:15:52;6.00;99.90
68139;DHT22;54940;50.842;4.410;2024-03-08T09:18:18;6.10;99.90
68139;DHT22;54940;50.842;4.410;2024-03-08T09:20:44;6.30;99.90
68139;DHT22;54940;50.842;4.410;2024-03-08T09:23:10;6.30;99.90
68139;DHT22;54940;50.842;4.410;2024-03-08T09:25:35;6.40;99.90
68139;DHT22;54940;50.842;4.410;2024-03-08T09:28:01;6.40;99.90
68139;DHT22;54940;50.842;4.410;2024-03-08T09:30:27;6.50;99.90
68139;DHT22;54940;50.842;4.410;2024-03-08T09:32:52;6.40;99.90
68139;DHT22;54940;50.842;4.410;2024-03-08T09:35:18;6.50;99.90
68139;DHT22;54940;50.842;4.410;2024-03-08T09:37:44;6.50;99.90
68139;DHT22;54940;50.842;4.410;2024-03-08T09:40:09;6.60;99.90
68139;DHT22;54940;50.842;4.410;2024-03-08T09:42:35;6.60;99.90
68139;DHT22;54940;50.842;4.410;2024-03-08T09:45:22;6.70;99.90
68139;DHT22;54940;50.842;4.410;2024-03-08T09:47:47;6.80;99.90
68139;DHT22;54940;50.842;4.410;2024-03-08T09:50:14;6.80;99.90
68139;DHT22;54940;50.842;4.410;2024-03-08T09:52:43;6.80;99.90
68139;DHT22;54940;50.842;4.410;2024-03-08T09:55:12;6.80;99.90
68139;DHT22;54940;50.842;4.410;2024-03-08T09:57:38;6.90;99.90
68139;DHT22;54940;50.842;4.410;2024-03-08T10:00:05;7.10;99.90
68139;DHT22;54940;50.842;4.410;2024-03-08T10:02:47;7.10;99.90
68139;DHT22;54940;50.842;4.410;2024-03-08T10:05:17;7.20;99.90
68139;DHT22;54940;50.842;4.410;2024-03-08T10:07:43;7.20;99.90
68139;DHT22;54940;50.842;4.410;2024-03-08T10:10:09;7.30;99.90
68139;DHT22;54940;50.842;4.410;2024-03-08T10:12:37;7.40;99.90
68139;DHT22;54940;50.842;4.410;2024-03-08T10:15:05;7.40;99.90
68139;DHT22;54940;50.842;4.410;2024-03-08T10:17:31;7.60;99.90
68139;DHT22;54940;50.842;4.410;2024-03-08T10:19:58;7.70;99.90
68139;DHT22;54940;50.842;4.410;2024-03-08T10:22:25;7.70;99.90
68139;DHT22;54940;50.842;4.410;2024-03-08T10:24:51;7.90;99.90
68139;DHT22;54940;50.842;4.410;2024-03-08T10:27:19;8.20;99.90
68139;DHT22;54940;50.842;4.410;2024-03-08T10:29:48;8.40;99.90
68139;DHT22;54940;50.842;4.410;2024-03-08T10:32:18;8.50;99.90
68139;DHT22;54940;50.842;4.410;2024-03-08T10:34:45;8.70;99.90
68139;DHT22;54940;50.842;4.410;2024-03-08T10:37:14;8.80;99.90
68139;DHT22;54940;50.842;4.410;2024-03-08T10:39:42;8.90;99.90
68139;DHT22;54940;50.842;4.410;2024-03-08T10:42:14;9.10;99.90
68139;DHT22;54940;50.842;4.410;2024-03-08T10:47:41;9.60;99.90
68139;DHT22;54940;50.842;4.410;2024-03-08T10:50:19;9.60;99.90
68139;DHT22;54940;50.842;4.410;2024-03-08T10:52:51;9.60;99.90
68139;DHT22;54940;50.842;4.410;2024-03-08T10:55:17;9.60;99.90
68139;DHT22;54940;50.842;4.410;2024-03-08T10:57:43;9.80;99.90
68139;DHT22;54940;50.842;4.410;2024-03-08T11:00:09;9.90;99.90
68139;DHT22;54940;50.842;4.410;2024-03-08T11:02:36;10.30;99.90
68139;DHT22;54940;50.842;4.410;2024-03-08T11:05:03;10.30;99.90
68139;DHT22;54940;50.842;4.410;2024-03-08T11:07:33;10.30;99.90
68139;DHT22;54940;50.842;4.410;2024-03-08T11:10:01;10.60;99.90
68139;DHT22;54940;50.842;4.410;2024-03-08T11:12:29;10.70;99.90
68139;DHT22;54940;50.842;4.410;2024-03-08T11:15:02;11.00;99.90
68139;DHT22;54940;50.842;4.410;2024-03-08T11:20:12;10.90;99.90
68139;DHT22;54940;50.842;4.410;2024-03-08T11:22:41;10.70;99.90
68139;DHT22;54940;50.842;4.410;2024-03-08T11:25:15;10.80;99.90
68139;DHT22;54940;50.842;4.410;2024-03-08T11:28:11;11.20;99.90
68139;DHT22;54940;50.842;4.410;2024-03-08T11:30:47;11.30;99.90
68139;DHT22;54940;50.842;4.410;2024-03-08T11:33:30;11.30;99.90
68139;DHT22;54940;50.842;4.410;2024-03-08T11:36:29;11.40;99.90
68139;DHT22;54940;50.842;4.410;2024-03-08T11:38:48;11.40;99.90
68139;DHT22;54940;50.842;4.410;2024-03-08T11:41:21;11.20;99.90
68139;DHT22;54940;50.842;4.410;2024-03-08T11:43:47;11.50;99.90
68139;DHT22;54940;50.842;4.410;2024-03-08T11:46:13;11.90;99.90
68139;DHT22;54940;50.842;4.410;2024-03-08T11:48:39;11.80;99.90
68139;DHT22;54940;50.842;4.410;2024-03-08T11:51:09;11.80;99.90
68139;DHT22;54940;50.842;4.410;2024-03-08T11:53:37;11.60;99.90
68139;DHT22;54940;50.842;4.410;2024-03-08T11:56:09;11.70;99.90
68139;DHT22;54940;50.842;4.410;2024-03-08T11:58:38;11.70;99.90
68139;DHT22;54940;50.842;4.410;2024-03-08T12:01:09;11.60;99.90
68139;DHT22;54940;50.842;4.410;2024-03-08T12:03:38;11.70;99.90
68139;DHT22;54940;50.842;4.410;2024-03-08T12:06:04;11.90;99.90
68139;DHT22;54940;50.842;4.410;2024-03-08T12:08:37;11.90;99.90
68139;DHT22;54940;50.842;4.410;2024-03-08T12:11:06;12.00;99.90
68139;DHT22;54940;50.842;4.410;2024-03-08T12:13:33;12.00;99.90
68139;DHT22;54940;50.842;4.410;2024-03-08T12:16:02;11.70;99.90
68139;DHT22;54940;50.842;4.410;2024-03-08T12:18:35;11.60;99.90
68139;DHT22;54940;50.842;4.410;2024-03-08T12:21:07;11.60;99.90
68139;DHT22;54940;50.842;4.410;2024-03-08T12:23:33;11.70;99.90
68139;DHT22;54940;50.842;4.410;2024-03-08T12:26:09;12.00;99.90
68139;DHT22;54940;50.842;4.410;2024-03-08T12:28:38;12.10;99.90
68139;DHT22;54940;50.842;4.410;2024-03-08T12:31:06;12.10;99.90
68139;DHT22;54940;50.842;4.410;2024-03-08T12:33:52;12.00;99.90
68139;DHT22;54940;50.842;4.410;2024-03-08T12:36:18;12.20;99.90
68139;DHT22;54940;50.842;4.410;2024-03-08T12:38:48;12.30;99.90
68139;DHT22;54940;50.842;4.410;2024-03-08T12:41:17;12.30;99.90
68139;DHT22;54940;50.842;4.410;2024-03-08T12:43:44;12.50;99.90
68139;DHT22;54940;50.842;4.410;2024-03-08T12:46:15;12.60;99.90
68139;DHT22;54940;50.842;4.410;2024-03-08T12:48:41;12.70;99.90
68139;DHT22;54940;50.842;4.410;2024-03-08T12:51:15;12.70;99.90
68139;DHT22;54940;50.842;4.410;2024-03-08T12:53:42;12.70;99.90
68139;DHT22;54940;50.842;4.410;2024-03-08T12:56:10;12.50;99.90
68139;DHT22;54940;50.842;4.410;2024-03-08T12:58:36;12.40;99.90
68139;DHT22;54940;50.842;4.410;2024-03-08T13:01:04;12.40;99.90
68139;DHT22;54940;50.842;4.410;2024-03-08T13:03:37;12.50;99.90
68139;DHT22;54940;50.842;4.410;2024-03-08T13:06:04;12.50;99.90
68139;DHT22;54940;50.842;4.410;2024-03-08T13:08:36;12.40;99.90
68139;DHT22;54940;50.842;4.410;2024-03-08T13:11:05;12.40;99.90
68139;DHT22;54940;50.842;4.410;2024-03-08T13:13:30;12.20;99.90
68139;DHT22;54940;50.842;4.410;2024-03-08T13:15:56;12.10;99.90
68139;DHT22;54940;50.842;4.410;2024-03-08T13:18:22;12.30;99.90
68139;DHT22;54940;50.842;4.410;2024-03-08T13:20:48;12.30;99.90
68139;DHT22;54940;50.842;4.410;2024-03-08T13:23:17;12.30;99.90
68139;DHT22;54940;50.842;4.410;2024-03-08T13:25:43;12.10;99.90
68139;DHT22;54940;50.842;4.410;2024-03-08T13:28:09;12.20;99.90
68139;DHT22;54940;50.842;4.410;2024-03-08T13:30:36;12.10;99.90
68139;DHT22;54940;50.842;4.410;2024-03-08T13:33:04;12.20;99.90
68139;DHT22;54940;50.842;4.410;2024-03-08T13:35:33;12.20;99.90
68139;DHT22;54940;50.842;4.410;2024-03-08T13:37:59;12.30;99.90
68139;DHT22;54940;50.842;4.410;2024-03-08T13:40:28;12.30;99.90
68139;DHT22;54940;50.842;4.410;2024-03-08T13:42:56;12.20;99.90
68139;DHT22;54940;50.842;4.410;2024-03-08T13:45:22;12.20;99.90
68139;DHT22;54940;50.842;4.410;2024-03-08T13:47:50;12.20;99.90
68139;DHT22;54940;50.842;4.410;2024-03-08T13:50:19;12.30;99.90
68139;DHT22;54940;50.842;4.410;2024-03-08T13:52:48;12.40;99.90
68139;DHT22;54940;50.842;4.410;2024-03-08T13:55:19;12.40;99.90
68139;DHT22;54940;50.842;4.410;2024-03-08T13:57:44;12.40;99.90
68139;DHT22;54940;50.842;4.410;2024-03-08T14:00:11;12.20;99.90
68139;DHT22;54940;50.842;4.410;2024-03-08T14:02:36;12.20;99.90
68139;DHT22;54940;50.842;4.410;2024-03-08T14:05:02;12.20;99.90
68139;DHT22;54940;50.842;4.410;2024-03-08T14:07:29;12.30;99.90
68139;DHT22;54940;50.842;4.410;2024-03-08T14:09:54;12.20;99.90
68139;DHT22;54940;50.842;4.410;2024-03-08T14:12:22;12.20;99.90
68139;DHT22;54940;50.842;4.410;2024-03-08T14:14:52;12.30;99.90
68139;DHT22;54940;50.842;4.410;2024-03-08T14:17:17;12.30;99.90
68139;DHT22;54940;50.842;4.410;2024-03-08T14:19:43;12.30;99.90
68139;DHT22;54940;50.842;4.410;2024-03-08T14:22:09;12.20;99.90
68139;DHT22;54940;50.842;4.410;2024-03-08T14:24:41;12.20;99.90
68139;DHT22;54940;50.842;4.410;2024-03-08T14:27:07;12.30;99.90
68139;DHT22;54940;50.842;4.410;2024-03-08T14:29:35;12.30;99.90
68139;DHT22;54940;50.842;4.410;2024-03-08T14:32:01;12.40;99.90
68139;DHT22;54940;50.842;4.410;2024-03-08T14:34:28;12.40;99.90
68139;DHT22;54940;50.842;4.410;2024-03-08T14:36:57;12.40;99.90
68139;DHT22;54940;50.842;4.410;2024-03-08T14:39:22;12.60;99.90
68139;DHT22;54940;50.842;4.410;2024-03-08T14:41:52;12.60;99.90
68139;DHT22;54940;50.842;4.410;2024-03-08T14:44:19;12.60;99.90
68139;DHT22;54940;50.842;4.410;2024-03-08T14:46:54;12.70;99.90
68139;DHT22;54940;50.842;4.410;2024-03-08T14:49:22;12.80;99.90
68139;DHT22;54940;50.842;4.410;2024-03-08T14:51:48;12.80;99.90
68139;DHT22;54940;50.842;4.410;2024-03-08T14:54:16;12.80;99.90
68139;DHT22;54940;50.842;4.410;2024-03-08T14:56:44;12.80;99.90
68139;DHT22;54940;50.842;4.410;2024-03-08T14:59:10;12.80;99.90
68139;DHT22;54940;50.842;4.410;2024-03-08T15:01:38;12.90;99.90
68139;DHT22;54940;50.842;4.410;2024-03-08T15:04:07;12.80;99.90
68139;DHT22;54940;50.842;4.410;2024-03-08T15:06:36;12.90;99.90
68139;DHT22;54940;50.842;4.410;2024-03-08T15:09:03;12.80;99.90
68139;DHT22;54940;50.842;4.410;2024-03-08T15:11:48;12.70;99.90
68139;DHT22;54940;50.842;4.410;2024-03-08T15:14:15;12.60;99.90
68139;DHT22;54940;50.842;4.410;2024-03-08T15:16:44;12.60;99.90
68139;DHT22;54940;50.842;4.410;2024-03-08T15:19:10;12.50;99.90
68139;DHT22;54940;50.842;4.410;2024-03-08T15:21:37;12.60;99.90
68139;DHT22;54940;50.842;4.410;2024-03-08T15:24:06;12.60;99.90
68139;DHT22;54940;50.842;4.410;2024-03-08T15:26:35;12.60;99.90
68139;DHT22;54940;50.842;4.410;2024-03-08T15:29:01;12.50;99.90
68139;DHT22;54940;50.842;4.410;2024-03-08T15:31:26;12.40;99.90
68139;DHT22;54940;50.842;4.410;2024-03-08T15:33:52;12.40;99.90
68139;DHT22;54940;50.842;4.410;2024-03-08T15:36:28;12.50;99.90
68139;DHT22;54940;50.842;4.410;2024-03-08T15:38:56;12.40;99.90
68139;DHT22;54940;50.842;4.410;2024-03-08T15:41:22;12.50;99.90
68139;DHT22;54940;50.842;4.410;2024-03-08T15:43:47;12.50;99.90
68139;DHT22;54940;50.842;4.410;2024-03-08T15:46:13;12.50;99.90
68139;DHT22;54940;50.842;4.410;2024-03-08T15:48:40;12.50;99.90
68139;DHT22;54940;50.842;4.410;2024-03-08T15:51:09;12.50;99.90
68139;DHT22;54940;50.842;4.410;2024-03-08T15:53:37;12.50;99.90
68139;DHT22;54940;50.842;4.410;2024-03-08T15:56:03;12.40;99.90
68139;DHT22;54940;50.842;4.410;2024-03-08T15:58:31;12.40;99.90
68139;DHT22;54940;50.842;4.410;2024-03-08T16:00:57;12.40;99.90
68139;DHT22;54940;50.842;4.410;2024-03-08T16:03:26;12.30;99.90
68139;DHT22;54940;50.842;4.410;2024-03-08T16:05:53;12.30;99.90
68139;DHT22;54940;50.842;4.410;2024-03-08T16:08:19;12.30;99.90
68139;DHT22;54940;50.842;4.410;2024-03-08T16:10:51;12.30;99.90
68139;DHT22;54940;50.842;4.410;2024-03-08T16:13:27;12.30;99.90
68139;DHT22;54940;50.842;4.410;2024-03-08T16:15:53;12.30;99.90
68139;DHT22;54940;50.842;4.410;2024-03-08T16:18:25;12.20;99.90
68139;DHT22;54940;50.842;4.410;2024-03-08T16:20:52;12.20;99.90
68139;DHT22;54940;50.842;4.410;2024-03-08T16:23:18;12.20;99.90
68139;DHT22;54940;50.842;4.410;2024-03-08T16:25:43;12.20;99.90
68139;DHT22;54940;50.842;4.410;2024-03-08T16:28:14;12.20;99.90
68139;DHT22;54940;50.842;4.410;2024-03-08T16:30:41;12.30;99.90
68139;DHT22;54940;50.842;4.410;2024-03-08T16:33:07;12.30;99.90
68139;DHT22;54940;50.842;4.410;2024-03-08T16:35:33;12.20;99.90
68139;DHT22;54940;50.842;4.410;2024-03-08T16:38:04;12.10;99.90
68139;DHT22;54940;50.842;4.410;2024-03-08T16:40:29;12.00;99.90
68139;DHT22;54940;50.842;4.410;2024-03-08T16:42:55;12.00;99.90
68139;DHT22;54940;50.842;4.410;2024-03-08T16:45:25;11.90;99.90
68139;DHT22;54940;50.842;4.410;2024-03-08T16:47:51;11.90;99.90
68139;DHT22;54940;50.842;4.410;2024-03-08T16:50:19;11.90;99.90
68139;DHT22;54940;50.842;4.410;2024-03-08T16:52:44;11.80;99.90
68139;DHT22;54940;50.842;4.410;2024-03-08T16:55:11;11.80;99.90
68139;DHT22;54940;50.842;4.410;2024-03-08T16:57:45;11.80;99.90
68139;DHT22;54940;50.842;4.410;2024-03-08T17:00:12;11.80;99.90
68139;DHT22;54940;50.842;4.410;2024-03-08T17:02:43;11.80;99.90
68139;DHT22;54940;50.842;4.410;2024-03-08T17:05:09;11.80;99.90
68139;DHT22;54940;50.842;4.410;2024-03-08T17:07:35;11.70;99.90
68139;DHT22;54940;50.842;4.410;2024-03-08T17:10:01;11.70;99.90
68139;DHT22;54940;50.842;4.410;2024-03-08T17:12:37;11.60;99.90
68139;DHT22;54940;50.842;4.410;2024-03-08T17:15:02;11.70;99.90
68139;DHT22;54940;50.842;4.410;2024-03-08T17:17:29;11.60;99.90
68139;DHT22;54940;50.842;4.410;2024-03-08T17:19:57;11.60;99.90
68139;DHT22;54940;50.842;4.410;2024-03-08T17:22:22;11.50;99.90
68139;DHT22;54940;50.842;4.410;2024-03-08T17:24:50;11.50;99.90
68139;DHT22;54940;50.842;4.410;2024-03-08T17:27:16;11.40;99.90
68139;DHT22;54940;50.842;4.410;2024-03-08T17:29:45;11.30;99.90
68139;DHT22;54940;50.842;4.410;2024-03-08T17:32:10;11.30;99.90
68139;DHT22;54940;50.842;4.410;2024-03-08T17:34:36;11.30;99.90
68139;DHT22;54940;50.842;4.410;2024-03-08T17:37:09;11.20;99.90
68139;DHT22;54940;50.842;4.410;2024-03-08T17:39:37;11.20;99.90
68139;DHT22;54940;50.842;4.410;2024-03-08T17:42:03;11.20;99.90
68139;DHT22;54940;50.842;4.410;2024-03-08T17:44:30;11.10;99.90
68139;DHT22;54940;50.842;4.410;2024-03-08T17:46:58;11.10;99.90
68139;DHT22;54940;50.842;4.410;2024-03-08T17:49:24;11.10;99.90
68139;DHT22;54940;50.842;4.410;2024-03-08T17:51:49;11.10;99.90
68139;DHT22;54940;50.842;4.410;2024-03-08T17:54:17;11.10;99.90
68139;DHT22;54940;50.842;4.410;2024-03-08T17:56:44;11.10;99.90
68139;DHT22;54940;50.842;4.410;2024-03-08T17:59:11;11.00;99.90
68139;DHT22;54940;50.842;4.410;2024-03-08T18:01:37;10.90;99.90
68139;DHT22;54940;50.842;4.410;2024-03-08T18:04:05;10.90;99.90
68139;DHT22;54940;50.842;4.410;2024-03-08T18:06:33;10.80;99.90
68139;DHT22;54940;50.842;4.410;2024-03-08T18:09:04;10.80;99.90
68139;DHT22;54940;50.842;4.410;2024-03-08T18:11:39;10.80;99.90
68139;DHT22;54940;50.842;4.410;2024-03-08T18:14:06;10.70;99.90
68139;DHT22;54940;50.842;4.410;2024-03-08T18:16:39;10.50;99.90
68139;DHT22;54940;50.842;4.410;2024-03-08T18:19:05;10.40;99.90
68139;DHT22;54940;50.842;4.410;2024-03-08T18:21:36;10.50;99.90
68139;DHT22;54940;50.842;4.410;2024-03-08T18:24:16;10.50;99.90
68139;DHT22;54940;50.842;4.410;2024-03-08T18:26:43;10.50;99.90
68139;DHT22;54940;50.842;4.410;2024-03-08T18:29:10;10.50;99.90
68139;DHT22;54940;50.842;4.410;2024-03-08T18:31:35;10.40;99.90
68139;DHT22;54940;50.842;4.410;2024-03-08T18:34:01;10.40;99.90
68139;DHT22;54940;50.842;4.410;2024-03-08T18:36:27;10.40;99.90
68139;DHT22;54940;50.842;4.410;2024-03-08T18:39:01;10.40;99.90
68139;DHT22;54940;50.842;4.410;2024-03-08T18:41:29;10.30;99.90
68139;DHT22;54940;50.842;4.410;2024-03-08T18:44:02;10.30;99.90
68139;DHT22;54940;50.842;4.410;2024-03-08T18:46:28;10.20;99.90
68139;DHT22;54940;50.842;4.410;2024-03-08T18:48:55;10.20;99.90
68139;DHT22;54940;50.842;4.410;2024-03-08T18:51:24;10.10;99.90
68139;DHT22;54940;50.842;4.410;2024-03-08T18:53:50;10.10;99.90
68139;DHT22;54940;50.842;4.410;2024-03-08T18:56:20;10.00;99.90
68139;DHT22;54940;50.842;4.410;2024-03-08T18:58:46;10.00;99.90
68139;DHT22;54940;50.842;4.410;2024-03-08T19:01:12;10.00;99.90
68139;DHT22;54940;50.842;4.410;2024-03-08T19:03:38;10.00;99.90
68139;DHT22;54940;50.842;4.410;2024-03-08T19:06:05;10.00;99.90
68139;DHT22;54940;50.842;4.410;2024-03-08T19:08:32;10.00;99.90
68139;DHT22;54940;50.842;4.410;2024-03-08T19:11:04;10.00;99.90
68139;DHT22;54940;50.842;4.410;2024-03-08T19:13:30;10.00;99.90
68139;DHT22;54940;50.842;4.410;2024-03-08T19:15:58;10.00;99.90
68139;DHT22;54940;50.842;4.410;2024-03-08T19:18:24;9.90;99.90
68139;DHT22;54940;50.842;4.410;2024-03-08T19:20:51;9.90;99.90
68139;DHT22;54940;50.842;4.410;2024-03-08T19:23:20;9.90;99.90
68139;DHT22;54940;50.842;4.410;2024-03-08T19:25:48;9.90;99.90
68139;DHT22;54940;50.842;4.410;2024-03-08T19:28:15;9.80;99.90
68139;DHT22;54940;50.842;4.410;2024-03-08T19:30:45;9.70;99.90
68139;DHT22;54940;50.842;4.410;2024-03-08T19:33:11;9.70;99.90
68139;DHT22;54940;50.842;4.410;2024-03-08T19:35:36;9.70;99.90
68139;DHT22;54940;50.842;4.410;2024-03-08T19:38:02;9.70;99.90
68139;DHT22;54940;50.842;4.410;2024-03-08T19:40:34;9.70;99.90
68139;DHT22;54940;50.842;4.410;2024-03-08T19:43:00;9.70;99.90
68139;DHT22;54940;50.842;4.410;2024-03-08T19:45:27;9.70;99.90
68139;DHT22;54940;50.842;4.410;2024-03-08T19:47:56;9.60;99.90
68139;DHT22;54940;50.842;4.410;2024-03-08T19:50:25;9.60;99.90
68139;DHT22;54940;50.842;4.410;2024-03-08T19:52:53;9.70;99.90
68139;DHT22;54940;50.842;4.410;2024-03-08T19:55:23;9.60;99.90
68139;DHT22;54940;50.842;4.410;2024-03-08T19:57:49;9.70;99.90
68139;DHT22;54940;50.842;4.410;2024-03-08T20:00:17;9.60;99.90
68139;DHT22;54940;50.842;4.410;2024-03-08T20:02:46;9.60;99.90
68139;DHT22;54940;50.842;4.410;2024-03-08T20:05:17;9.60;99.90
68139;DHT22;54940;50.842;4.410;2024-03-08T20:07:46;9.70;99.90
68139;DHT22;54940;50.842;4.410;2024-03-08T20:10:14;9.70;99.90
68139;DHT22;54940;50.842;4.410;2024-03-08T20:12:42;9.60;99.90
68139;DHT22;54940;50.842;4.410;2024-03-08T20:15:09;9.60;99.90
68139;DHT22;54940;50.842;4.410;2024-03-08T20:17:35;9.60;99.90
68139;DHT22;54940;50.842;4.410;2024-03-08T20:20:02;9.60;99.90
68139;DHT22;54940;50.842;4.410;2024-03-08T20:22:28;9.60;99.90
68139;DHT22;54940;50.842;4.410;2024-03-08T20:24:53;9.60;99.90
68139;DHT22;54940;50.842;4.410;2024-03-08T20:27:25;9.50;99.90
68139;DHT22;54940;50.842;4.410;2024-03-08T20:29:56;9.60;99.90
68139;DHT22;54940;50.842;4.410;2024-03-08T20:32:23;9.60;99.90
68139;DHT22;54940;50.842;4.410;2024-03-08T20:34:49;9.60;99.90
68139;DHT22;54940;50.842;4.410;2024-03-08T20:37:18;9.50;99.90
68139;DHT22;54940;50.842;4.410;2024-03-08T20:39:47;9.50;99.90
68139;DHT22;54940;50.842;4.410;2024-03-08T20:42:14;9.50;99.90
68139;DHT22;54940;50.842;4.410;2024-03-08T20:44:39;9.50;99.90
68139;DHT22;54940;50.842;4.410;2024-03-08T20:47:05;9.40;99.90
68139;DHT22;54940;50.842;4.410;2024-03-08T20:49:31;9.40;99.90
68139;DHT22;54940;50.842;4.410;2024-03-08T20:51:57;9.40;99.90
68139;DHT22;54940;50.842;4.410;2024-03-08T20:54:22;9.50;99.90
68139;DHT22;54940;50.842;4.410;2024-03-08T20:56:48;9.50;99.90
68139;DHT22;54940;50.842;4.410;2024-03-08T20:59:17;9.50;99.90
68139;DHT22;54940;50.842;4.410;2024-03-08T21:01:47;9.50;99.90
68139;DHT22;54940;50.842;4.410;2024-03-08T21:04:13;9.50;99.90
68139;DHT22;54940;50.842;4.410;2024-03-08T21:06:45;9.50;99.90
68139;DHT22;54940;50.842;4.410;2024-03-08T21:09:10;9.50;99.90
68139;DHT22;54940;50.842;4.410;2024-03-08T21:11:37;9.40;99.90
68139;DHT22;54940;50.842;4.410;2024-03-08T21:14:02;9.40;99.90
68139;DHT22;54940;50.842;4.410;2024-03-08T21:16:28;9.40;99.90
68139;DHT22;54940;50.842;4.410;2024-03-08T21:18:54;9.40;99.90
68139;DHT22;54940;50.842;4.410;2024-03-08T21:21:22;9.40;99.90
68139;DHT22;54940;50.842;4.410;2024-03-08T21:23:47;9.40;99.90
68139;DHT22;54940;50.842;4.410;2024-03-08T21:26:13;9.40;99.90
68139;DHT22;54940;50.842;4.410;2024-03-08T21:28:43;9.40;99.90
68139;DHT22;54940;50.842;4.410;2024-03-08T21:31:08;9.40;99.90
68139;DHT22;54940;50.842;4.410;2024-03-08T21:33:34;9.40;99.90
68139;DHT22;54940;50.842;4.410;2024-03-08T21:35:59;9.40;99.90
68139;DHT22;54940;50.842;4.410;2024-03-08T21:38:26;9.40;99.90
68139;DHT22;54940;50.842;4.410;2024-03-08T21:40:52;9.40;99.90
68139;DHT22;54940;50.842;4.410;2024-03-08T21:43:18;9.40;99.90
68139;DHT22;54940;50.842;4.410;2024-03-08T21:45:44;9.40;99.90
68139;DHT22;54940;50.842;4.410;2024-03-08T21:48:10;9.40;99.90
68139;DHT22;54940;50.842;4.410;2024-03-08T21:50:38;9.40;99.90
68139;DHT22;54940;50.842;4.410;2024-03-08T21:53:04;9.40;99.90
68139;DHT22;54940;50.842;4.410;2024-03-08T21:55:33;9.30;99.90
68139;DHT22;54940;50.842;4.410;2024-03-08T21:57:58;9.30;99.90
68139;DHT22;54940;50.842;4.410;2024-03-08T22:00:24;9.20;99.90
68139;DHT22;54940;50.842;4.410;2024-03-08T22:02:52;9.20;99.90
68139;DHT22;54940;50.842;4.410;2024-03-08T22:05:18;9.20;99.90
68139;DHT22;54940;50.842;4.410;2024-03-08T22:07:46;9.20;99.90
68139;DHT22;54940;50.842;4.410;2024-03-08T22:10:12;9.10;99.90
68139;DHT22;54940;50.842;4.410;2024-03-08T22:12:52;9.10;99.90
68139;DHT22;54940;50.842;4.410;2024-03-08T22:17:53;9.10;99.90
68139;DHT22;54940;50.842;4.410;2024-03-08T22:20:21;9.10;99.90
68139;DHT22;54940;50.842;4.410;2024-03-08T22:22:51;9.10;99.90
68139;DHT22;54940;50.842;4.410;2024-03-08T22:25:17;9.20;99.90
68139;DHT22;54940;50.842;4.410;2024-03-08T22:27:49;9.20;99.90
68139;DHT22;54940;50.842;4.410;2024-03-08T22:30:16;9.20;99.90